sensor_id;sensor_type;location;lat;lon;timestamp;P1;durP1;ratioP1;P2;durP2;ratioP2
17363;SDS011;8799;43.594;13.526;2024-03-17T00:01:23;3.30;;;1.87;;
17363;SDS011;8799;43.594;13.526;2024-03-17T00:03:50;2.60;;;1.93;;
17363;SDS011;8799;43.594;13.526;2024-03-17T00:06:18;5.23;;;2.30;;
17363;SDS011;8799;43.594;13.526;2024-03-17T00:08:45;4.50;;;1.80;;
17363;SDS011;8799;43.594;13.526;2024-03-17T00:11:13;3.97;;;1.60;;
17363;SDS011;8799;43.594;13.526;2024-03-17T00:13:40;4.03;;;1.67;;
17363;SDS011;8799;43.594;13.526;2024-03-17T00:16:07;2.63;;;1.70;;
17363;SDS011;8799;43.594;13.526;2024-03-17T00:18:35;2.20;;;1.63;;
17363;SDS011;8799;43.594;13.526;2024-03-17T00:21:03;3.03;;;2.30;;
17363;SDS011;8799;43.594;13.526;2024-03-17T00:23:30;2.70;;;2.13;;
17363;SDS011;8799;43.594;13.526;2024-03-17T00:25:59;3.33;;;2.03;;
17363;SDS011;8799;43.594;13.526;2024-03-17T00:28:25;4.70;;;1.90;;
17363;SDS011;8799;43.594;13.526;2024-03-17T00:30:53;4.47;;;1.83;;
17363;SDS011;8799;43.594;13.526;2024-03-17T00:33:20;2.67;;;2.17;;
17363;SDS011;8799;43.594;13.526;2024-03-17T00:35:48;2.90;;;1.83;;
17363;SDS011;8799;43.594;13.526;2024-03-17T00:38:14;2.40;;;1.80;;
17363;SDS011;8799;43.594;13.526;2024-03-17T00:40:42;3.00;;;1.70;;
17363;SDS011;8799;43.594;13.526;2024-03-17T00:43:11;5.07;;;2.40;;
17363;SDS011;8799;43.594;13.526;2024-03-17T00:45:40;2.20;;;1.70;;
17363;SDS011;8799;43.594;13.526;2024-03-17T00:48:07;4.07;;;2.00;;
17363;SDS011;8799;43.594;13.526;2024-03-17T00:50:35;4.10;;;2.20;;
17363;SDS011;8799;43.594;13.526;2024-03-17T00:53:01;4.80;;;2.00;;
17363;SDS011;8799;43.594;13.526;2024-03-17T00:55:29;2.70;;;1.50;;
17363;SDS011;8799;43.594;13.526;2024-03-17T00:57:56;2.83;;;1.70;;
17363;SDS011;8799;43.594;13.526;2024-03-17T01:00:26;3.70;;;1.97;;
17363;SDS011;8799;43.594;13.526;2024-03-17T01:02:53;4.40;;;2.13;;
17363;SDS011;8799;43.594;13.526;2024-03-17T01:05:21;2.33;;;1.40;;
17363;SDS011;8799;43.594;13.526;2024-03-17T01:07:47;2.63;;;1.70;;
17363;SDS011;8799;43.594;13.526;2024-03-17T01:10:16;2.90;;;1.93;;
17363;SDS011;8799;43.594;13.526;2024-03-17T01:12:43;2.10;;;1.53;;
17363;SDS011;8799;43.594;13.526;2024-03-17T01:15:11;2.43;;;1.83;;
17363;SDS011;8799;43.594;13.526;2024-03-17T01:17:38;4.77;;;2.17;;
17363;SDS011;8799;43.594;13.526;2024-03-17T01:20:07;2.80;;;1.90;;
17363;SDS011;8799;43.594;13.526;2024-03-17T01:22:33;5.37;;;1.90;;
17363;SDS011;8799;43.594;13.526;2024-03-17T01:25:01;4.03;;;2.13;;
17363;SDS011;8799;43.594;13.526;2024-03-17T01:27:28;2.07;;;1.60;;
17363;SDS011;8799;43.594;13.526;2024-03-17T01:29:55;2.70;;;1.83;;
17363;SDS011;8799;43.594;13.526;2024-03-17T01:32:21;3.37;;;2.00;;
17363;SDS011;8799;43.594;13.526;2024-03-17T01:34:50;3.13;;;2.00;;
17363;SDS011;8799;43.594;13.526;2024-03-17T01:37:17;4.53;;;2.27;;
17363;SDS011;8799;43.594;13.526;2024-03-17T01:39:45;3.03;;;2.10;;
17363;SDS011;8799;43.594;13.526;2024-03-17T01:42:11;3.13;;;1.90;;
17363;SDS011;8799;43.594;13.526;2024-03-17T01:44:39;2.63;;;1.90;;
17363;SDS011;8799;43.594;13.526;2024-03-17T01:47:05;3.03;;;2.00;;
17363;SDS011;8799;43.594;13.526;2024-03-17T01:49:34;3.63;;;1.70;;
17363;SDS011;8799;43.594;13.526;2024-03-17T01:52:02;3.63;;;2.17;;
17363;SDS011;8799;43.594;13.526;2024-03-17T01:54:31;4.23;;;2.20;;
17363;SDS011;8799;43.594;13.526;2024-03-17T01:56:58;4.40;;;2.10;;
17363;SDS011;8799;43.594;13.526;2024-03-17T01:59:26;6.53;;;2.23;;
17363;SDS011;8799;43.594;13.526;2024-03-17T02:01:52;3.10;;;1.93;;
17363;SDS011;8799;43.594;13.526;2024-03-17T02:04:20;3.63;;;1.93;;
17363;SDS011;8799;43.594;13.526;2024-03-17T02:06:47;2.97;;;1.80;;
17363;SDS011;8799;43.594;13.526;2024-03-17T02:09:16;2.53;;;1.87;;
17363;SDS011;8799;43.594;13.526;2024-03-17T02:11:44;5.43;;;2.27;;
17363;SDS011;8799;43.594;13.526;2024-03-17T02:14:11;3.83;;;2.10;;
17363;SDS011;8799;43.594;13.526;2024-03-17T02:16:39;3.37;;;1.67;;
17363;SDS011;8799;43.594;13.526;2024-03-17T02:19:06;4.97;;;2.10;;
17363;SDS011;8799;43.594;13.526;2024-03-17T02:21:33;3.00;;;1.90;;
17363;SDS011;8799;43.594;13.526;2024-03-17T02:24:01;3.40;;;2.27;;
17363;SDS011;8799;43.594;13.526;2024-03-17T02:26:30;3.90;;;2.17;;
17363;SDS011;8799;43.594;13.526;2024-03-17T02:28:56;3.83;;;2.27;;
17363;SDS011;8799;43.594;13.526;2024-03-17T02:31:24;3.13;;;2.10;;
17363;SDS011;8799;43.594;13.526;2024-03-17T02:33:52;2.80;;;2.00;;
17363;SDS011;8799;43.594;13.526;2024-03-17T02:36:18;3.73;;;1.90;;
17363;SDS011;8799;43.594;13.526;2024-03-17T02:38:47;3.30;;;1.90;;
17363;SDS011;8799;43.594;13.526;2024-03-17T02:41:33;4.03;;;1.90;;
17363;SDS011;8799;43.594;13.526;2024-03-17T02:44:02;2.77;;;1.87;;
17363;SDS011;8799;43.594;13.526;2024-03-17T02:46:29;3.60;;;1.83;;
17363;SDS011;8799;43.594;13.526;2024-03-17T02:48:59;3.43;;;1.80;;
17363;SDS011;8799;43.594;13.526;2024-03-17T02:51:27;3.67;;;2.30;;
17363;SDS011;8799;43.594;13.526;2024-03-17T02:53:55;3.83;;;1.90;;
17363;SDS011;8799;43.594;13.526;2024-03-17T02:56:24;3.73;;;2.17;;
17363;SDS011;8799;43.594;13.526;2024-03-17T02:58:54;1.90;;;1.60;;
17363;SDS011;8799;43.594;13.526;2024-03-17T03:01:22;2.93;;;1.80;;
17363;SDS011;8799;43.594;13.526;2024-03-17T03:03:50;3.13;;;1.97;;
17363;SDS011;8799;43.594;13.526;2024-03-17T03:06:18;2.73;;;2.00;;
17363;SDS011;8799;43.594;13.526;2024-03-17T03:08:46;2.80;;;1.60;;
17363;SDS011;8799;43.594;13.526;2024-03-17T03:11:16;2.23;;;1.80;;
17363;SDS011;8799;43.594;13.526;2024-03-17T03:13:44;4.77;;;1.87;;
17363;SDS011;8799;43.594;13.526;2024-03-17T03:16:13;3.20;;;1.90;;
17363;SDS011;8799;43.594;13.526;2024-03-17T03:18:42;2.97;;;1.83;;
17363;SDS011;8799;43.594;13.526;2024-03-17T03:21:09;3.30;;;1.87;;
17363;SDS011;8799;43.594;13.526;2024-03-17T03:23:38;3.27;;;1.83;;
17363;SDS011;8799;43.594;13.526;2024-03-17T03:26:05;5.53;;;2.03;;
17363;SDS011;8799;43.594;13.526;2024-03-17T03:28:35;3.50;;;1.67;;
17363;SDS011;8799;43.594;13.526;2024-03-17T03:31:03;3.80;;;1.90;;
17363;SDS011;8799;43.594;13.526;2024-03-17T03:33:33;4.50;;;2.17;;
17363;SDS011;8799;43.594;13.526;2024-03-17T03:36:06;2.97;;;1.70;;
17363;SDS011;8799;43.594;13.526;2024-03-17T03:38:34;3.30;;;1.97;;
17363;SDS011;8799;43.594;13.526;2024-03-17T03:41:06;3.67;;;1.90;;
17363;SDS011;8799;43.594;13.526;2024-03-17T03:43:33;4.43;;;2.20;;
17363;SDS011;8799;43.594;13.526;2024-03-17T03:46:01;2.63;;;1.67;;
17363;SDS011;8799;43.594;13.526;2024-03-17T03:48:29;2.20;;;1.90;;
17363;SDS011;8799;43.594;13.526;2024-03-17T03:50:58;3.57;;;1.90;;
17363;SDS011;8799;43.594;13.526;2024-03-17T03:53:26;3.20;;;2.00;;
17363;SDS011;8799;43.594;13.526;2024-03-17T03:55:54;2.47;;;1.80;;
17363;SDS011;8799;43.594;13.526;2024-03-17T03:58:22;3.70;;;1.97;;
17363;SDS011;8799;43.594;13.526;2024-03-17T04:00:50;3.23;;;1.83;;
17363;SDS011;8799;43.594;13.526;2024-03-17T04:03:18;3.10;;;1.80;;
17363;SDS011;8799;43.594;13.526;2024-03-17T04:05:46;2.73;;;1.70;;
17363;SDS011;8799;43.594;13.526;2024-03-17T04:08:15;3.83;;;2.03;;
17363;SDS011;8799;43.594;13.526;2024-03-17T04:10:44;2.53;;;1.87;;
17363;SDS011;8799;43.594;13.526;2024-03-17T04:13:12;4.40;;;1.90;;
17363;SDS011;8799;43.594;13.526;2024-03-17T04:15:40;4.30;;;1.93;;
17363;SDS011;8799;43.594;13.526;2024-03-17T04:18:08;4.77;;;1.90;;
17363;SDS011;8799;43.594;13.526;2024-03-17T04:20:36;3.17;;;1.93;;
17363;SDS011;8799;43.594;13.526;2024-03-17T04:23:05;3.27;;;1.83;;
17363;SDS011;8799;43.594;13.526;2024-03-17T04:25:34;4.47;;;2.07;;
17363;SDS011;8799;43.594;13.526;2024-03-17T04:28:02;2.97;;;2.10;;
17363;SDS011;8799;43.594;13.526;2024-03-17T04:30:30;3.63;;;2.00;;
17363;SDS011;8799;43.594;13.526;2024-03-17T04:32:58;4.23;;;1.80;;
17363;SDS011;8799;43.594;13.526;2024-03-17T04:35:26;1.80;;;1.70;;
17363;SDS011;8799;43.594;13.526;2024-03-17T04:37:54;3.17;;;1.90;;
17363;SDS011;8799;43.594;13.526;2024-03-17T04:40:22;5.90;;;1.90;;
17363;SDS011;8799;43.594;13.526;2024-03-17T04:42:52;3.50;;;2.07;;
17363;SDS011;8799;43.594;13.526;2024-03-17T04:45:21;3.53;;;2.27;;
17363;SDS011;8799;43.594;13.526;2024-03-17T04:47:49;2.33;;;1.73;;
17363;SDS011;8799;43.594;13.526;2024-03-17T04:50:16;3.93;;;2.10;;
17363;SDS011;8799;43.594;13.526;2024-03-17T04:52:44;5.57;;;2.40;;
17363;SDS011;8799;43.594;13.526;2024-03-17T04:55:12;2.27;;;1.57;;
17363;SDS011;8799;43.594;13.526;2024-03-17T04:57:42;2.27;;;1.80;;
17363;SDS011;8799;43.594;13.526;2024-03-17T05:00:12;2.60;;;1.83;;
17363;SDS011;8799;43.594;13.526;2024-03-17T05:02:43;2.83;;;1.93;;
17363;SDS011;8799;43.594;13.526;2024-03-17T05:05:11;3.13;;;1.97;;
17363;SDS011;8799;43.594;13.526;2024-03-17T05:07:39;2.53;;;1.50;;
17363;SDS011;8799;43.594;13.526;2024-03-17T05:10:07;2.47;;;2.17;;
17363;SDS011;8799;43.594;13.526;2024-03-17T05:12:35;2.40;;;1.77;;
17363;SDS011;8799;43.594;13.526;2024-03-17T05:15:03;6.73;;;1.97;;
17363;SDS011;8799;43.594;13.526;2024-03-17T05:17:33;3.93;;;2.37;;
17363;SDS011;8799;43.594;13.526;2024-03-17T05:20:01;3.13;;;1.97;;
17363;SDS011;8799;43.594;13.526;2024-03-17T05:22:28;2.43;;;1.40;;
17363;SDS011;8799;43.594;13.526;2024-03-17T05:24:56;2.40;;;1.80;;
17363;SDS011;8799;43.594;13.526;2024-03-17T05:27:24;1.87;;;1.67;;
17363;SDS011;8799;43.594;13.526;2024-03-17T05:29:52;3.17;;;1.70;;
17363;SDS011;8799;43.594;13.526;2024-03-17T05:32:20;2.53;;;2.07;;
17363;SDS011;8799;43.594;13.526;2024-03-17T05:34:50;2.67;;;1.73;;
17363;SDS011;8799;43.594;13.526;2024-03-17T05:37:17;6.00;;;2.13;;
17363;SDS011;8799;43.594;13.526;2024-03-17T05:39:45;4.13;;;2.20;;
17363;SDS011;8799;43.594;13.526;2024-03-17T05:42:13;2.47;;;1.63;;
17363;SDS011;8799;43.594;13.526;2024-03-17T05:44:41;2.33;;;1.70;;
17363;SDS011;8799;43.594;13.526;2024-03-17T05:47:16;2.63;;;1.70;;
17363;SDS011;8799;43.594;13.526;2024-03-17T05:49:45;3.23;;;1.83;;
17363;SDS011;8799;43.594;13.526;2024-03-17T05:52:14;4.83;;;1.63;;
17363;SDS011;8799;43.594;13.526;2024-03-17T05:54:43;3.43;;;1.83;;
17363;SDS011;8799;43.594;13.526;2024-03-17T05:57:10;3.03;;;2.00;;
17363;SDS011;8799;43.594;13.526;2024-03-17T05:59:39;3.30;;;2.00;;
17363;SDS011;8799;43.594;13.526;2024-03-17T06:02:06;4.40;;;2.43;;
17363;SDS011;8799;43.594;13.526;2024-03-17T06:04:36;4.03;;;2.30;;
17363;SDS011;8799;43.594;13.526;2024-03-17T06:07:05;5.30;;;2.40;;
17363;SDS011;8799;43.594;13.526;2024-03-17T06:09:34;3.87;;;1.90;;
17363;SDS011;8799;43.594;13.526;2024-03-17T06:12:04;3.40;;;2.07;;
17363;SDS011;8799;43.594;13.526;2024-03-17T06:14:32;3.07;;;2.13;;
17363;SDS011;8799;43.594;13.526;2024-03-17T06:17:00;5.40;;;1.90;;
17363;SDS011;8799;43.594;13.526;2024-03-17T06:19:30;3.77;;;2.20;;
17363;SDS011;8799;43.594;13.526;2024-03-17T06:21:58;2.23;;;1.70;;
17363;SDS011;8799;43.594;13.526;2024-03-17T06:24:26;3.70;;;2.10;;
17363;SDS011;8799;43.594;13.526;2024-03-17T06:26:55;5.17;;;1.90;;
17363;SDS011;8799;43.594;13.526;2024-03-17T06:29:23;3.70;;;1.90;;
17363;SDS011;8799;43.594;13.526;2024-03-17T06:31:52;6.90;;;2.50;;
17363;SDS011;8799;43.594;13.526;2024-03-17T06:34:20;3.13;;;2.03;;
17363;SDS011;8799;43.594;13.526;2024-03-17T06:36:48;3.40;;;2.40;;
17363;SDS011;8799;43.594;13.526;2024-03-17T06:39:16;3.77;;;2.43;;
17363;SDS011;8799;43.594;13.526;2024-03-17T06:41:44;4.97;;;2.13;;
17363;SDS011;8799;43.594;13.526;2024-03-17T06:44:14;3.77;;;2.13;;
17363;SDS011;8799;43.594;13.526;2024-03-17T06:46:42;4.20;;;2.77;;
17363;SDS011;8799;43.594;13.526;2024-03-17T06:49:12;3.90;;;2.30;;
17363;SDS011;8799;43.594;13.526;2024-03-17T06:51:40;3.77;;;2.60;;
17363;SDS011;8799;43.594;13.526;2024-03-17T06:54:08;4.33;;;2.37;;
17363;SDS011;8799;43.594;13.526;2024-03-17T06:56:36;4.57;;;2.53;;
17363;SDS011;8799;43.594;13.526;2024-03-17T06:59:05;3.67;;;2.33;;
17363;SDS011;8799;43.594;13.526;2024-03-17T07:01:34;4.60;;;2.27;;
17363;SDS011;8799;43.594;13.526;2024-03-17T07:04:03;4.07;;;2.40;;
17363;SDS011;8799;43.594;13.526;2024-03-17T07:06:31;3.47;;;2.10;;
17363;SDS011;8799;43.594;13.526;2024-03-17T07:08:59;4.33;;;2.43;;
17363;SDS011;8799;43.594;13.526;2024-03-17T07:11:26;5.93;;;1.90;;
17363;SDS011;8799;43.594;13.526;2024-03-17T07:13:54;4.53;;;2.23;;
17363;SDS011;8799;43.594;13.526;2024-03-17T07:16:22;3.67;;;2.13;;
17363;SDS011;8799;43.594;13.526;2024-03-17T07:18:52;3.87;;;1.87;;
17363;SDS011;8799;43.594;13.526;2024-03-17T07:21:21;3.33;;;2.03;;
17363;SDS011;8799;43.594;13.526;2024-03-17T07:23:49;3.97;;;1.93;;
17363;SDS011;8799;43.594;13.526;2024-03-17T07:26:17;1.73;;;1.40;;
17363;SDS011;8799;43.594;13.526;2024-03-17T07:28:45;2.47;;;1.83;;
17363;SDS011;8799;43.594;13.526;2024-03-17T07:31:13;2.23;;;1.70;;
17363;SDS011;8799;43.594;13.526;2024-03-17T07:33:40;3.53;;;2.03;;
17363;SDS011;8799;43.594;13.526;2024-03-17T07:36:09;2.57;;;1.63;;
17363;SDS011;8799;43.594;13.526;2024-03-17T07:38:37;3.57;;;1.50;;
17363;SDS011;8799;43.594;13.526;2024-03-17T07:41:05;1.70;;;1.60;;
17363;SDS011;8799;43.594;13.526;2024-03-17T07:43:34;4.50;;;1.70;;
17363;SDS011;8799;43.594;13.526;2024-03-17T07:46:03;3.77;;;2.00;;
17363;SDS011;8799;43.594;13.526;2024-03-17T07:48:31;6.50;;;1.80;;
17363;SDS011;8799;43.594;13.526;2024-03-17T07:51:00;2.40;;;1.50;;
17363;SDS011;8799;43.594;13.526;2024-03-17T07:53:30;3.00;;;1.77;;
17363;SDS011;8799;43.594;13.526;2024-03-17T07:55:59;1.43;;;1.33;;
17363;SDS011;8799;43.594;13.526;2024-03-17T07:58:27;2.70;;;1.63;;
17363;SDS011;8799;43.594;13.526;2024-03-17T08:00:58;2.43;;;1.50;;
17363;SDS011;8799;43.594;13.526;2024-03-17T08:03:27;3.57;;;1.60;;
17363;SDS011;8799;43.594;13.526;2024-03-17T08:05:55;3.23;;;1.80;;
17363;SDS011;8799;43.594;13.526;2024-03-17T08:08:23;2.20;;;1.57;;
17363;SDS011;8799;43.594;13.526;2024-03-17T08:10:53;2.87;;;1.80;;
17363;SDS011;8799;43.594;13.526;2024-03-17T08:13:21;2.07;;;1.60;;
17363;SDS011;8799;43.594;13.526;2024-03-17T08:15:54;2.10;;;1.50;;
17363;SDS011;8799;43.594;13.526;2024-03-17T08:18:23;3.30;;;1.53;;
17363;SDS011;8799;43.594;13.526;2024-03-17T08:20:51;4.57;;;2.33;;
17363;SDS011;8799;43.594;13.526;2024-03-17T08:23:19;3.63;;;2.30;;
17363;SDS011;8799;43.594;13.526;2024-03-17T08:25:52;6.50;;;2.60;;
17363;SDS011;8799;43.594;13.526;2024-03-17T08:28:20;3.30;;;2.10;;
17363;SDS011;8799;43.594;13.526;2024-03-17T08:30:52;4.23;;;2.27;;
17363;SDS011;8799;43.594;13.526;2024-03-17T08:33:20;2.87;;;1.67;;
17363;SDS011;8799;43.594;13.526;2024-03-17T08:35:52;4.30;;;1.90;;
17363;SDS011;8799;43.594;13.526;2024-03-17T08:38:21;3.93;;;2.00;;
17363;SDS011;8799;43.594;13.526;2024-03-17T08:40:50;2.50;;;1.93;;
17363;SDS011;8799;43.594;13.526;2024-03-17T08:43:20;5.70;;;2.03;;
17363;SDS011;8799;43.594;13.526;2024-03-17T08:45:54;4.23;;;1.90;;
17363;SDS011;8799;43.594;13.526;2024-03-17T08:48:23;3.00;;;1.80;;
17363;SDS011;8799;43.594;13.526;2024-03-17T08:50:52;2.87;;;1.83;;
17363;SDS011;8799;43.594;13.526;2024-03-17T08:53:19;2.33;;;1.60;;
17363;SDS011;8799;43.594;13.526;2024-03-17T08:55:47;4.03;;;2.30;;
17363;SDS011;8799;43.594;13.526;2024-03-17T08:58:15;6.37;;;2.20;;
17363;SDS011;8799;43.594;13.526;2024-03-17T09:00:44;6.17;;;2.13;;
17363;SDS011;8799;43.594;13.526;2024-03-17T09:03:12;3.57;;;2.17;;
17363;SDS011;8799;43.594;13.526;2024-03-17T09:05:41;5.23;;;2.03;;
17363;SDS011;8799;43.594;13.526;2024-03-17T09:08:10;4.17;;;1.90;;
17363;SDS011;8799;43.594;13.526;2024-03-17T09:10:42;5.20;;;2.20;;
17363;SDS011;8799;43.594;13.526;2024-03-17T09:13:11;3.37;;;2.03;;
17363;SDS011;8799;43.594;13.526;2024-03-17T09:15:40;2.10;;;1.77;;
17363;SDS011;8799;43.594;13.526;2024-03-17T09:18:10;4.03;;;1.87;;
17363;SDS011;8799;43.594;13.526;2024-03-17T09:20:38;4.17;;;2.10;;
17363;SDS011;8799;43.594;13.526;2024-03-17T09:23:06;3.23;;;2.00;;
17363;SDS011;8799;43.594;13.526;2024-03-17T09:25:33;5.70;;;2.17;;
17363;SDS011;8799;43.594;13.526;2024-03-17T09:28:02;2.03;;;1.60;;
17363;SDS011;8799;43.594;13.526;2024-03-17T09:30:29;2.80;;;1.80;;
17363;SDS011;8799;43.594;13.526;2024-03-17T09:32:57;4.47;;;2.03;;
17363;SDS011;8799;43.594;13.526;2024-03-17T09:35:27;2.63;;;1.70;;
17363;SDS011;8799;43.594;13.526;2024-03-17T09:37:55;4.13;;;2.00;;
17363;SDS011;8799;43.594;13.526;2024-03-17T09:40:23;2.83;;;1.70;;
17363;SDS011;8799;43.594;13.526;2024-03-17T09:42:51;3.73;;;2.03;;
17363;SDS011;8799;43.594;13.526;2024-03-17T09:45:19;3.50;;;2.00;;
17363;SDS011;8799;43.594;13.526;2024-03-17T09:47:47;4.93;;;2.57;;
17363;SDS011;8799;43.594;13.526;2024-03-17T09:50:15;4.33;;;2.10;;
17363;SDS011;8799;43.594;13.526;2024-03-17T09:52:45;3.87;;;1.80;;
17363;SDS011;8799;43.594;13.526;2024-03-17T09:55:15;4.13;;;2.10;;
17363;SDS011;8799;43.594;13.526;2024-03-17T09:57:44;2.63;;;1.90;;
17363;SDS011;8799;43.594;13.526;2024-03-17T10:00:13;2.13;;;1.63;;
17363;SDS011;8799;43.594;13.526;2024-03-17T10:02:44;3.70;;;2.20;;
17363;SDS011;8799;43.594;13.526;2024-03-17T10:05:18;5.23;;;2.03;;
17363;SDS011;8799;43.594;13.526;2024-03-17T10:07:48;2.50;;;1.90;;
17363;SDS011;8799;43.594;13.526;2024-03-17T10:10:16;4.23;;;2.20;;
17363;SDS011;8799;43.594;13.526;2024-03-17T10:12:48;5.43;;;2.33;;
17363;SDS011;8799;43.594;13.526;2024-03-17T10:15:17;2.73;;;2.00;;
17363;SDS011;8799;43.594;13.526;2024-03-17T10:17:45;5.20;;;1.80;;
17363;SDS011;8799;43.594;13.526;2024-03-17T10:20:14;6.83;;;2.13;;
17363;SDS011;8799;43.594;13.526;2024-03-17T10:22:59;4.27;;;2.20;;
17363;SDS011;8799;43.594;13.526;2024-03-17T10:25:28;2.70;;;2.03;;
17363;SDS011;8799;43.594;13.526;2024-03-17T10:27:56;2.03;;;1.80;;
17363;SDS011;8799;43.594;13.526;2024-03-17T10:30:24;4.23;;;1.97;;
17363;SDS011;8799;43.594;13.526;2024-03-17T10:32:55;5.13;;;2.10;;
17363;SDS011;8799;43.594;13.526;2024-03-17T10:35:29;3.50;;;2.10;;
17363;SDS011;8799;43.594;13.526;2024-03-17T10:37:59;3.23;;;2.10;;
17363;SDS011;8799;43.594;13.526;2024-03-17T10:40:27;3.77;;;2.27;;
17363;SDS011;8799;43.594;13.526;2024-03-17T10:42:56;2.90;;;1.83;;
17363;SDS011;8799;43.594;13.526;2024-03-17T10:45:25;2.93;;;2.00;;
17363;SDS011;8799;43.594;13.526;2024-03-17T10:47:55;5.77;;;3.03;;
17363;SDS011;8799;43.594;13.526;2024-03-17T10:50:23;4.17;;;2.73;;
17363;SDS011;8799;43.594;13.526;2024-03-17T10:52:52;6.50;;;2.90;;
17363;SDS011;8799;43.594;13.526;2024-03-17T10:55:22;6.27;;;3.50;;
17363;SDS011;8799;43.594;13.526;2024-03-17T10:57:50;6.50;;;3.33;;
17363;SDS011;8799;43.594;13.526;2024-03-17T11:00:19;6.27;;;3.67;;
17363;SDS011;8799;43.594;13.526;2024-03-17T11:02:47;5.67;;;3.13;;
17363;SDS011;8799;43.594;13.526;2024-03-17T11:05:17;6.37;;;3.27;;
17363;SDS011;8799;43.594;13.526;2024-03-17T11:07:46;6.77;;;3.43;;
17363;SDS011;8799;43.594;13.526;2024-03-17T11:10:15;7.20;;;3.53;;
17363;SDS011;8799;43.594;13.526;2024-03-17T11:12:45;8.10;;;4.03;;
17363;SDS011;8799;43.594;13.526;2024-03-17T11:20:55;4.83;;;2.93;;
17363;SDS011;8799;43.594;13.526;2024-03-17T11:23:25;4.80;;;3.40;;
17363;SDS011;8799;43.594;13.526;2024-03-17T11:25:54;7.30;;;3.50;;
17363;SDS011;8799;43.594;13.526;2024-03-17T11:31:40;4.37;;;3.10;;
17363;SDS011;8799;43.594;13.526;2024-03-17T11:36:50;8.40;;;3.13;;
17363;SDS011;8799;43.594;13.526;2024-03-17T11:39:16;4.53;;;2.93;;
17363;SDS011;8799;43.594;13.526;2024-03-17T11:41:46;7.47;;;3.50;;
17363;SDS011;8799;43.594;13.526;2024-03-17T11:44:16;5.43;;;3.07;;
17363;SDS011;8799;43.594;13.526;2024-03-17T11:46:53;5.90;;;3.03;;
17363;SDS011;8799;43.594;13.526;2024-03-17T11:49:21;5.27;;;3.40;;
17363;SDS011;8799;43.594;13.526;2024-03-17T11:51:49;7.73;;;3.20;;
17363;SDS011;8799;43.594;13.526;2024-03-17T11:54:17;4.00;;;3.00;;
17363;SDS011;8799;43.594;13.526;2024-03-17T11:56:46;6.47;;;2.37;;
17363;SDS011;8799;43.594;13.526;2024-03-17T11:59:12;4.60;;;2.50;;
17363;SDS011;8799;43.594;13.526;2024-03-17T12:01:42;3.90;;;2.27;;
17363;SDS011;8799;43.594;13.526;2024-03-17T12:04:11;5.00;;;2.77;;
17363;SDS011;8799;43.594;13.526;2024-03-17T12:06:44;5.40;;;2.70;;
17363;SDS011;8799;43.594;13.526;2024-03-17T12:09:11;5.20;;;2.63;;
17363;SDS011;8799;43.594;13.526;2024-03-17T12:11:44;4.20;;;2.73;;
17363;SDS011;8799;43.594;13.526;2024-03-17T12:14:14;3.67;;;2.73;;
17363;SDS011;8799;43.594;13.526;2024-03-17T12:16:51;4.73;;;2.50;;
17363;SDS011;8799;43.594;13.526;2024-03-17T12:19:20;8.80;;;2.33;;
17363;SDS011;8799;43.594;13.526;2024-03-17T12:21:49;3.67;;;2.37;;
17363;SDS011;8799;43.594;13.526;2024-03-17T12:24:17;4.93;;;2.73;;
17363;SDS011;8799;43.594;13.526;2024-03-17T12:26:45;5.43;;;3.00;;
17363;SDS011;8799;43.594;13.526;2024-03-17T12:29:28;6.47;;;2.60;;
17363;SDS011;8799;43.594;13.526;2024-03-17T12:31:58;3.77;;;2.73;;
17363;SDS011;8799;43.594;13.526;2024-03-17T12:34:27;4.13;;;2.80;;
17363;SDS011;8799;43.594;13.526;2024-03-17T12:36:56;4.40;;;2.80;;
17363;SDS011;8799;43.594;13.526;2024-03-17T12:39:23;5.30;;;2.67;;
17363;SDS011;8799;43.594;13.526;2024-03-17T12:42:03;5.43;;;3.10;;
17363;SDS011;8799;43.594;13.526;2024-03-17T12:44:31;6.90;;;2.97;;
17363;SDS011;8799;43.594;13.526;2024-03-17T12:47:00;6.13;;;2.93;;
17363;SDS011;8799;43.594;13.526;2024-03-17T12:49:29;3.80;;;2.80;;
17363;SDS011;8799;43.594;13.526;2024-03-17T12:51:57;6.23;;;3.00;;
17363;SDS011;8799;43.594;13.526;2024-03-17T12:54:25;6.90;;;3.20;;
17363;SDS011;8799;43.594;13.526;2024-03-17T12:57:03;5.67;;;3.10;;
17363;SDS011;8799;43.594;13.526;2024-03-17T12:59:48;9.30;;;2.77;;
17363;SDS011;8799;43.594;13.526;2024-03-17T13:02:47;4.80;;;2.70;;
17363;SDS011;8799;43.594;13.526;2024-03-17T13:05:17;5.17;;;3.10;;
17363;SDS011;8799;43.594;13.526;2024-03-17T13:07:46;5.47;;;2.77;;
17363;SDS011;8799;43.594;13.526;2024-03-17T13:10:14;7.10;;;2.93;;
17363;SDS011;8799;43.594;13.526;2024-03-17T13:12:57;5.07;;;2.70;;
17363;SDS011;8799;43.594;13.526;2024-03-17T13:15:26;3.53;;;2.43;;
17363;SDS011;8799;43.594;13.526;2024-03-17T13:17:56;6.57;;;3.03;;
17363;SDS011;8799;43.594;13.526;2024-03-17T13:20:26;4.17;;;2.53;;
17363;SDS011;8799;43.594;13.526;2024-03-17T13:22:55;3.93;;;2.33;;
17363;SDS011;8799;43.594;13.526;2024-03-17T13:25:23;4.83;;;2.77;;
17363;SDS011;8799;43.594;13.526;2024-03-17T13:27:52;4.93;;;2.93;;
17363;SDS011;8799;43.594;13.526;2024-03-17T13:30:21;5.63;;;2.70;;
17363;SDS011;8799;43.594;13.526;2024-03-17T13:32:49;4.30;;;2.60;;
17363;SDS011;8799;43.594;13.526;2024-03-17T13:35:25;9.03;;;2.67;;
17363;SDS011;8799;43.594;13.526;2024-03-17T13:37:55;5.97;;;2.63;;
17363;SDS011;8799;43.594;13.526;2024-03-17T13:40:25;5.77;;;2.63;;
17363;SDS011;8799;43.594;13.526;2024-03-17T13:42:54;3.63;;;2.20;;
17363;SDS011;8799;43.594;13.526;2024-03-17T13:45:24;6.43;;;2.70;;
17363;SDS011;8799;43.594;13.526;2024-03-17T13:47:53;3.93;;;2.60;;
17363;SDS011;8799;43.594;13.526;2024-03-17T13:50:22;4.40;;;2.70;;
17363;SDS011;8799;43.594;13.526;2024-03-17T13:52:50;4.70;;;2.70;;
17363;SDS011;8799;43.594;13.526;2024-03-17T13:55:20;7.40;;;2.27;;
17363;SDS011;8799;43.594;13.526;2024-03-17T13:57:49;6.77;;;2.67;;
17363;SDS011;8799;43.594;13.526;2024-03-17T14:00:19;5.33;;;2.53;;
17363;SDS011;8799;43.594;13.526;2024-03-17T14:02:47;6.70;;;2.50;;
17363;SDS011;8799;43.594;13.526;2024-03-17T14:05:16;5.27;;;2.90;;
17363;SDS011;8799;43.594;13.526;2024-03-17T14:07:44;4.20;;;2.40;;
17363;SDS011;8799;43.594;13.526;2024-03-17T14:10:13;3.87;;;2.57;;
17363;SDS011;8799;43.594;13.526;2024-03-17T14:12:43;3.47;;;2.37;;
17363;SDS011;8799;43.594;13.526;2024-03-17T14:15:12;6.10;;;2.30;;
17363;SDS011;8799;43.594;13.526;2024-03-17T14:17:41;3.33;;;2.10;;
17363;SDS011;8799;43.594;13.526;2024-03-17T14:20:09;4.47;;;2.23;;
17363;SDS011;8799;43.594;13.526;2024-03-17T14:22:38;5.70;;;2.47;;
17363;SDS011;8799;43.594;13.526;2024-03-17T14:25:07;4.70;;;2.33;;
17363;SDS011;8799;43.594;13.526;2024-03-17T14:27:38;4.93;;;2.00;;
17363;SDS011;8799;43.594;13.526;2024-03-17T14:30:09;3.83;;;1.97;;
17363;SDS011;8799;43.594;13.526;2024-03-17T14:32:38;4.13;;;2.07;;
17363;SDS011;8799;43.594;13.526;2024-03-17T14:35:06;3.70;;;2.33;;
17363;SDS011;8799;43.594;13.526;2024-03-17T14:37:39;2.47;;;1.97;;
17363;SDS011;8799;43.594;13.526;2024-03-17T14:40:08;4.57;;;2.30;;
17363;SDS011;8799;43.594;13.526;2024-03-17T14:42:41;3.80;;;2.10;;
17363;SDS011;8799;43.594;13.526;2024-03-17T14:45:11;4.43;;;2.20;;
17363;SDS011;8799;43.594;13.526;2024-03-17T14:47:39;4.00;;;2.07;;
17363;SDS011;8799;43.594;13.526;2024-03-17T14:50:08;4.17;;;1.77;;
17363;SDS011;8799;43.594;13.526;2024-03-17T14:52:40;2.53;;;1.83;;
17363;SDS011;8799;43.594;13.526;2024-03-17T14:55:08;3.13;;;2.17;;
17363;SDS011;8799;43.594;13.526;2024-03-17T14:57:37;4.63;;;2.30;;
17363;SDS011;8799;43.594;13.526;2024-03-17T15:00:06;6.87;;;2.53;;
17363;SDS011;8799;43.594;13.526;2024-03-17T15:02:43;5.83;;;2.50;;
17363;SDS011;8799;43.594;13.526;2024-03-17T15:05:10;4.87;;;2.20;;
17363;SDS011;8799;43.594;13.526;2024-03-17T15:07:39;4.20;;;2.60;;
17363;SDS011;8799;43.594;13.526;2024-03-17T15:10:07;4.37;;;2.80;;